Weather at Ghat Airport

Public forecast

Using degrees Celsius for public forecast. Weather courtesy of forecast.io.

Closest aviation weather report (METAR) to Ghat Airport

Closest report is Djanet Inedbirene Airport, 63.5 nm (117.7 km) SW. Retrieved 2020/10/29 12:00 UTC (13 minutes ago):

DAAJ 291200Z 22002KT CAVOK 28/M01 Q1022

Aviation forecast (TAF) for Ghat Airport

Forecast is more than 12 hours old.

Retrieved 2020/10/28 12:00 UTC (1 day ago):

TAF HLGT 281100Z 2812/2912 VRB02KT CAVOK BECMG 2816/2818 36010KT BECMG 2821/2823 VRB02KT